createdAt,value
2023-03-04T00:01:28.991Z,9.28
2023-03-04T00:03:55.783Z,9.35
2023-03-04T00:06:22.655Z,9.37
2023-03-04T00:08:49.476Z,9.29
2023-03-04T00:11:16.471Z,9.34
2023-03-04T00:13:43.194Z,9.35
2023-03-04T00:16:09.884Z,9.28
2023-03-04T00:18:36.806Z,9.31
2023-03-04T00:21:03.899Z,9.28
2023-03-04T00:23:30.657Z,9.29
2023-03-04T00:25:57.483Z,9.29
2023-03-04T00:28:24.617Z,9.28
2023-03-04T00:30:51.824Z,9.27
2023-03-04T00:33:18.685Z,9.28
2023-03-04T00:35:45.496Z,9.25
2023-03-04T00:38:12.338Z,9.25
2023-03-04T00:40:39.094Z,9.18
2023-03-04T00:43:05.877Z,9.16
2023-03-04T00:45:32.603Z,9.13
2023-03-04T00:47:59.414Z,8.98
2023-03-04T00:50:26.167Z,8.91
2023-03-04T00:52:52.901Z,8.74
2023-03-04T00:55:19.706Z,8.67
2023-03-04T00:57:46.445Z,8.64
2023-03-04T01:00:14.522Z,8.76
2023-03-04T01:02:41.403Z,8.75
2023-03-04T01:05:09.094Z,8.82
2023-03-04T01:07:38.193Z,8.85
2023-03-04T01:10:06.583Z,8.79
2023-03-04T01:12:33.318Z,8.74
2023-03-04T01:15:00.250Z,8.77
2023-03-04T01:17:27.079Z,8.73
2023-03-04T01:19:53.883Z,8.74
2023-03-04T01:22:23.709Z,8.75
2023-03-04T01:24:50.568Z,8.64
2023-03-04T01:27:17.281Z,8.66
2023-03-04T01:29:44.128Z,8.49
2023-03-04T01:32:10.951Z,8.50
2023-03-04T01:34:37.766Z,8.48
2023-03-04T01:37:04.793Z,8.51
2023-03-04T01:39:31.717Z,8.48
2023-03-04T01:41:58.869Z,8.32
2023-03-04T01:44:25.700Z,8.29
2023-03-04T01:46:54.992Z,8.25
2023-03-04T01:49:22.984Z,8.34
2023-03-04T01:51:52.907Z,8.35
2023-03-04T01:54:22.076Z,8.23
2023-03-04T01:56:51.561Z,8.26
2023-03-04T01:59:23.109Z,8.21
2023-03-04T02:01:53.968Z,8.14
2023-03-04T02:04:26.369Z,8.08
2023-03-04T02:06:53.367Z,8.19
2023-03-04T02:09:21.632Z,8.17
2023-03-04T02:11:50.398Z,7.97
2023-03-04T02:14:19.517Z,7.77
2023-03-04T02:16:46.936Z,7.69
2023-03-04T02:19:39.714Z,7.63
2023-03-04T02:22:06.872Z,7.46
2023-03-04T02:24:46.175Z,7.35
2023-03-04T02:27:13.162Z,7.34
2023-03-04T02:29:40.770Z,7.18
2023-03-04T02:32:12.429Z,7.27
2023-03-04T02:34:46.159Z,7.22
2023-03-04T02:37:13.901Z,7.14
2023-03-04T02:39:47.480Z,7.02
2023-03-04T02:42:14.454Z,7.14
2023-03-04T02:44:46.469Z,7.18
2023-03-04T02:47:17.957Z,7.31
2023-03-04T02:49:45.332Z,7.43
2023-03-04T02:52:19.703Z,7.54
2023-03-04T02:54:46.591Z,7.26
2023-03-04T02:57:15.060Z,7.36
2023-03-04T02:59:45.928Z,7.11
2023-03-04T03:02:17.670Z,6.99
2023-03-04T03:04:44.522Z,6.81
2023-03-04T03:07:13.966Z,6.97
2023-03-04T03:09:41.380Z,6.94
2023-03-04T03:12:08.088Z,7.07
2023-03-04T03:14:34.856Z,7.16
2023-03-04T03:17:03.776Z,7.24
2023-03-04T03:19:31.716Z,7.42
2023-03-04T03:22:00.099Z,7.47
2023-03-04T03:24:27.183Z,7.55
2023-03-04T03:26:54.019Z,7.57
2023-03-04T03:29:20.931Z,7.55
2023-03-04T03:31:47.740Z,7.56
2023-03-04T03:34:14.676Z,7.60
2023-03-04T03:36:41.858Z,7.63
2023-03-04T03:39:08.569Z,7.56
2023-03-04T03:41:35.278Z,7.63
2023-03-04T03:44:02.001Z,7.50
2023-03-04T03:46:29.905Z,7.33
2023-03-04T03:48:56.775Z,7.40
2023-03-04T03:51:23.533Z,7.36
2023-03-04T03:53:50.246Z,7.35
2023-03-04T03:56:16.982Z,7.39
2023-03-04T03:58:43.738Z,7.15
2023-03-04T04:01:10.572Z,7.20
2023-03-04T04:03:37.419Z,7.15
2023-03-04T04:06:04.241Z,7.24
2023-03-04T04:08:31.147Z,7.35
2023-03-04T04:10:57.892Z,7.38
2023-03-04T04:13:24.741Z,7.31
2023-03-04T04:15:52.381Z,7.20
2023-03-04T04:18:19.320Z,7.23
2023-03-04T04:20:46.728Z,7.17
2023-03-04T04:23:13.470Z,7.26
2023-03-04T04:25:40.280Z,7.15
2023-03-04T04:28:07.452Z,7.10
2023-03-04T04:30:34.630Z,7.02
2023-03-04T04:33:01.984Z,7.05
2023-03-04T04:35:28.869Z,6.98
2023-03-04T04:37:55.602Z,6.69
2023-03-04T04:40:22.406Z,6.79
2023-03-04T04:42:49.391Z,6.78
2023-03-04T04:45:17.114Z,6.72
2023-03-04T04:47:44.243Z,6.79
2023-03-04T04:50:11.704Z,6.67
2023-03-04T04:52:38.418Z,6.75
2023-03-04T04:55:05.564Z,6.71
2023-03-04T04:57:33.588Z,6.64
2023-03-04T05:00:00.372Z,6.71
2023-03-04T05:02:27.091Z,6.66
2023-03-04T05:04:53.829Z,6.65
2023-03-04T05:07:20.639Z,6.57
2023-03-04T05:09:47.404Z,6.53
2023-03-04T05:12:14.145Z,6.50
2023-03-04T05:14:40.934Z,6.48
2023-03-04T05:17:07.696Z,6.33
2023-03-04T05:19:34.411Z,6.46
2023-03-04T05:22:01.310Z,6.43
2023-03-04T05:24:28.061Z,6.59
2023-03-04T05:26:54.768Z,6.60
2023-03-04T05:29:21.691Z,6.62
2023-03-04T05:31:48.379Z,6.58
2023-03-04T05:34:15.214Z,6.47
2023-03-04T05:36:41.965Z,6.56
2023-03-04T05:39:08.810Z,6.55
2023-03-04T05:41:35.587Z,6.67
2023-03-04T05:44:02.484Z,6.60
2023-03-04T05:46:30.745Z,6.48
2023-03-04T05:48:59.112Z,6.52
2023-03-04T05:51:25.823Z,6.57
2023-03-04T05:53:52.543Z,6.56
2023-03-04T05:56:20.403Z,6.52
2023-03-04T05:58:47.643Z,6.54
2023-03-04T06:01:14.971Z,6.51
2023-03-04T06:03:43.514Z,6.39
2023-03-04T06:06:10.705Z,6.33
2023-03-04T06:08:37.568Z,6.38
2023-03-04T06:11:05.602Z,6.46
2023-03-04T06:13:34.827Z,6.52
2023-03-04T06:16:01.770Z,6.59
2023-03-04T06:18:29.128Z,6.51
2023-03-04T06:20:58.570Z,6.45
2023-03-04T06:23:26.295Z,6.44
2023-03-04T06:25:54.744Z,6.50
2023-03-04T06:28:21.786Z,6.55
2023-03-04T06:30:48.605Z,6.53
2023-03-04T06:33:15.296Z,6.50
2023-03-04T06:35:42.080Z,6.55
2023-03-04T06:38:08.927Z,6.43
2023-03-04T06:40:35.938Z,6.61
2023-03-04T06:43:02.658Z,6.69
2023-03-04T06:45:29.434Z,6.71
2023-03-04T06:47:56.263Z,6.81
2023-03-04T06:50:23.001Z,6.89
2023-03-04T06:52:50.075Z,7.03
2023-03-04T06:55:16.861Z,7.05
2023-03-04T06:57:43.648Z,6.99
2023-03-04T07:00:11.076Z,6.97
2023-03-04T07:02:37.865Z,7.01
2023-03-04T07:05:04.984Z,6.98
2023-03-04T07:07:31.721Z,7.08
2023-03-04T07:09:58.704Z,7.12
2023-03-04T07:12:31.627Z,7.21
2023-03-04T07:14:58.403Z,7.22
2023-03-04T07:17:25.148Z,7.25
2023-03-04T07:19:52.055Z,7.39
2023-03-04T07:22:18.859Z,7.54
2023-03-04T07:24:45.628Z,7.62
2023-03-04T07:27:12.573Z,7.73
2023-03-04T07:29:39.352Z,7.86
2023-03-04T07:32:10.421Z,7.84
2023-03-04T07:34:37.506Z,7.90
2023-03-04T07:37:04.293Z,7.92
2023-03-04T07:39:31.148Z,7.98
2023-03-04T07:41:58.019Z,8.07
2023-03-04T07:44:27.494Z,8.28
2023-03-04T07:46:54.272Z,8.41
2023-03-04T07:49:22.210Z,8.62
2023-03-04T07:51:49.040Z,8.75
2023-03-04T07:54:16.011Z,8.82
2023-03-04T07:56:43.368Z,8.91
2023-03-04T07:59:10.166Z,8.92
2023-03-04T08:01:37.857Z,8.94
2023-03-04T08:04:06.684Z,8.86
2023-03-04T08:06:33.824Z,8.84
2023-03-04T08:09:05.829Z,9.10
2023-03-04T08:11:33.968Z,9.23
2023-03-04T08:14:00.739Z,9.12
2023-03-04T08:16:27.920Z,9.38
2023-03-04T08:18:57.800Z,9.41
2023-03-04T08:21:26.629Z,9.57
2023-03-04T08:23:54.420Z,9.77
2023-03-04T08:26:30.352Z,9.76
2023-03-04T08:28:58.050Z,9.83
2023-03-04T08:31:25.087Z,9.83
2023-03-04T08:33:52.949Z,10.01
2023-03-04T08:36:20.718Z,10.04
2023-03-04T08:38:47.692Z,10.20
2023-03-04T08:41:15.495Z,10.19
2023-03-04T08:43:42.775Z,10.48
2023-03-04T08:46:09.538Z,10.36
2023-03-04T08:48:38.097Z,10.44
2023-03-04T08:51:10.030Z,10.31
2023-03-04T08:53:37.977Z,10.30
2023-03-04T08:56:05.569Z,10.22
2023-03-04T08:58:32.369Z,10.23
2023-03-04T09:01:01.030Z,10.26
2023-03-04T09:03:28.696Z,10.19
2023-03-04T09:05:56.010Z,10.39
2023-03-04T09:08:23.201Z,10.35
2023-03-04T09:10:53.107Z,10.48
2023-03-04T09:13:20.005Z,10.44
2023-03-04T09:15:49.172Z,10.60
2023-03-04T09:18:16.540Z,10.86
2023-03-04T09:20:44.297Z,11.06
2023-03-04T09:23:11.463Z,11.13
2023-03-04T09:25:38.985Z,11.21
2023-03-04T09:28:06.970Z,10.95
2023-03-04T09:30:35.180Z,11.04
2023-03-04T09:33:02.104Z,11.18
2023-03-04T09:35:32.571Z,11.22
2023-03-04T09:38:00.146Z,11.21
2023-03-04T09:40:48.949Z,11.38
2023-03-04T09:43:22.500Z,11.33
2023-03-04T09:45:55.733Z,11.36
2023-03-04T09:48:24.939Z,11.39
2023-03-04T09:50:59.530Z,11.64
2023-03-04T09:53:44.055Z,11.64
2023-03-04T09:56:12.156Z,11.83
2023-03-04T09:58:50.991Z,12.05
2023-03-04T10:01:25.529Z,12.19
2023-03-04T10:04:01.901Z,12.55
2023-03-04T10:06:31.256Z,12.80
2023-03-04T10:09:06.245Z,12.90
2023-03-04T10:11:44.606Z,13.13
2023-03-04T10:14:34.128Z,13.32
2023-03-04T10:17:10.202Z,13.43
2023-03-04T10:19:52.864Z,13.60
2023-03-04T10:22:22.718Z,13.65
2023-03-04T10:24:49.603Z,13.59
2023-03-04T10:27:20.003Z,13.56
2023-03-04T10:29:48.980Z,13.59
2023-03-04T10:32:19.045Z,13.61
2023-03-04T10:34:46.249Z,13.62
2023-03-04T10:37:13.205Z,13.82
2023-03-04T10:39:43.008Z,13.96
2023-03-04T10:42:15.984Z,14.13
2023-03-04T10:44:51.157Z,14.33
2023-03-04T10:47:17.991Z,14.40
2023-03-04T10:49:56.126Z,14.51
2023-03-04T10:52:46.264Z,14.57
2023-03-04T10:55:22.231Z,14.71
2023-03-04T10:57:55.688Z,14.69
2023-03-04T11:00:27.248Z,14.83
2023-03-04T11:03:27.945Z,14.80
2023-03-04T11:06:25.358Z,14.85
2023-03-04T11:08:59.347Z,14.86
2023-03-04T11:11:31.209Z,14.83
2023-03-04T11:14:08.632Z,14.80
2023-03-04T11:16:35.525Z,14.92
2023-03-04T11:19:16.705Z,15.03
2023-03-04T11:21:44.270Z,14.90
2023-03-04T11:24:27.777Z,15.02
2023-03-04T11:27:03.880Z,15.23
2023-03-04T11:29:42.238Z,15.33
2023-03-04T11:32:39.840Z,15.39
2023-03-04T11:35:28.148Z,15.43
2023-03-04T11:38:17.592Z,15.45
2023-03-04T11:40:57.923Z,15.60
2023-03-04T11:43:42.737Z,15.34
2023-03-04T11:46:25.815Z,15.49
2023-03-04T11:50:00.306Z,15.55
2023-03-04T11:52:42.011Z,15.47
2023-03-04T11:55:18.414Z,15.55
2023-03-04T11:57:57.738Z,15.73
2023-03-04T12:00:58.849Z,15.83
2023-03-04T12:03:57.430Z,15.95
2023-03-04T12:06:53.987Z,16.12
2023-03-04T12:09:35.617Z,16.22
2023-03-04T12:12:20.938Z,16.31
2023-03-04T12:15:16.856Z,16.39
2023-03-04T12:17:58.714Z,16.47
2023-03-04T12:20:53.190Z,16.54
2023-03-04T12:23:38.386Z,16.54
2023-03-04T12:26:40.872Z,16.51
2023-03-04T12:29:27.804Z,16.38
2023-03-04T12:32:00.650Z,16.32
2023-03-04T12:34:39.006Z,16.37
2023-03-04T12:37:30.481Z,16.37
2023-03-04T12:40:06.896Z,16.27
2023-03-04T12:42:54.522Z,16.09
2023-03-04T12:45:42.196Z,16.08
2023-03-04T12:48:33.459Z,15.91
2023-03-04T12:51:55.704Z,15.91
2023-03-04T12:54:37.309Z,15.82
2023-03-04T12:57:06.876Z,15.68
2023-03-04T12:59:43.144Z,15.77
2023-03-04T13:02:34.813Z,15.66
2023-03-04T13:05:25.326Z,15.58
2023-03-04T13:08:19.582Z,15.57
2023-03-04T13:10:46.458Z,15.57
2023-03-04T13:13:37.209Z,15.63
2023-03-04T13:16:40.809Z,15.54
2023-03-04T13:19:45.374Z,15.51
2023-03-04T13:22:33.672Z,15.46
2023-03-04T13:25:22.052Z,15.58
2023-03-04T13:27:51.899Z,15.57
2023-03-04T13:30:34.540Z,15.62
2023-03-04T13:33:13.653Z,15.64
2023-03-04T13:35:49.500Z,15.63
2023-03-04T13:38:29.006Z,15.70
2023-03-04T13:41:21.850Z,15.73
2023-03-04T13:43:55.730Z,15.68
2023-03-04T13:46:27.470Z,15.70
2023-03-04T13:49:01.385Z,15.77
2023-03-04T13:51:41.310Z,15.64
2023-03-04T13:54:13.715Z,15.46
2023-03-04T13:56:40.988Z,15.63
2023-03-04T13:59:07.671Z,15.53
2023-03-04T14:01:55.860Z,15.59
2023-03-04T14:04:22.820Z,15.59
2023-03-04T14:06:51.559Z,15.63
2023-03-04T14:09:21.122Z,15.66
2023-03-04T14:11:49.341Z,15.58
2023-03-04T14:14:20.831Z,15.72
2023-03-04T14:16:50.293Z,15.51
2023-03-04T14:19:29.570Z,15.62
2023-03-04T14:21:57.496Z,15.52
2023-03-04T14:24:24.878Z,15.50
2023-03-04T14:27:13.455Z,15.49
2023-03-04T14:29:40.804Z,15.36
2023-03-04T14:32:08.098Z,15.41
2023-03-04T14:34:38.351Z,15.43
2023-03-04T14:37:31.393Z,15.46
2023-03-04T14:40:00.773Z,15.38
2023-03-04T14:42:39.470Z,15.45
2023-03-04T14:45:07.312Z,15.42
2023-03-04T14:47:46.145Z,15.27
2023-03-04T14:50:17.096Z,15.24
2023-03-04T14:53:04.306Z,15.18
2023-03-04T14:55:31.164Z,15.07
2023-03-04T14:58:10.104Z,15.20
2023-03-04T15:00:41.024Z,15.00
2023-03-04T15:03:19.317Z,15.10
2023-03-04T15:05:48.632Z,15.15
2023-03-04T15:08:52.157Z,15.33
2023-03-04T15:11:26.114Z,15.41
2023-03-04T15:13:58.056Z,15.49
2023-03-04T15:16:28.224Z,15.44
2023-03-04T15:19:02.204Z,15.52
2023-03-04T15:21:34.775Z,15.59
2023-03-04T15:24:03.710Z,15.68
2023-03-04T15:26:37.564Z,15.64
2023-03-04T15:29:13.899Z,15.52
2023-03-04T15:31:42.102Z,15.53
2023-03-04T15:34:14.046Z,15.54
2023-03-04T15:36:41.134Z,15.44
2023-03-04T15:39:12.661Z,15.42
2023-03-04T15:41:39.546Z,15.47
2023-03-04T15:44:06.714Z,15.59
2023-03-04T15:46:33.802Z,15.49
2023-03-04T15:49:00.715Z,15.37
2023-03-04T15:51:27.929Z,15.49
2023-03-04T15:53:57.595Z,15.49
2023-03-04T15:56:31.684Z,15.57
2023-03-04T15:59:11.812Z,15.64
2023-03-04T16:01:40.381Z,15.64
2023-03-04T16:04:15.334Z,15.61
2023-03-04T16:06:44.582Z,15.46
2023-03-04T16:09:14.859Z,15.47
2023-03-04T16:11:45.602Z,15.57
2023-03-04T16:14:14.441Z,15.58
2023-03-04T16:16:43.840Z,15.55
2023-03-04T16:19:10.660Z,15.47
2023-03-04T16:21:37.533Z,15.53
2023-03-04T16:24:05.098Z,15.49
2023-03-04T16:26:33.410Z,15.53
2023-03-04T16:29:00.537Z,15.55
2023-03-04T16:31:27.362Z,15.58
2023-03-04T16:33:54.200Z,15.58
2023-03-04T16:36:27.425Z,15.57
2023-03-04T16:39:02.550Z,15.59
2023-03-04T16:41:33.224Z,15.69
2023-03-04T16:44:00.877Z,15.66
2023-03-04T16:46:28.077Z,15.46
2023-03-04T16:48:55.198Z,15.57
2023-03-04T16:51:23.259Z,15.58
2023-03-04T16:54:00.289Z,15.57
2023-03-04T16:56:27.433Z,15.56
2023-03-04T16:58:54.490Z,15.56
2023-03-04T17:01:26.853Z,15.57
2023-03-04T17:03:54.970Z,15.55
2023-03-04T17:06:23.351Z,15.46
2023-03-04T17:08:51.067Z,15.41
2023-03-04T17:11:20.820Z,15.33
2023-03-04T17:13:48.016Z,15.24
2023-03-04T17:16:15.561Z,15.19
2023-03-04T17:18:42.925Z,15.08
2023-03-04T17:21:13.727Z,15.01
2023-03-04T17:23:40.626Z,14.90
2023-03-04T17:26:07.673Z,14.84
2023-03-04T17:28:34.427Z,14.79
2023-03-04T17:31:01.713Z,14.74
2023-03-04T17:33:28.458Z,14.69
2023-03-04T17:35:56.879Z,14.66
2023-03-04T17:38:23.683Z,14.61
2023-03-04T17:40:50.490Z,14.60
2023-03-04T17:43:17.253Z,14.57
2023-03-04T17:45:44.468Z,14.52
2023-03-04T17:48:15.426Z,14.50
2023-03-04T17:50:52.098Z,14.44
2023-03-04T17:53:20.150Z,14.42
2023-03-04T17:55:50.969Z,14.35
2023-03-04T17:58:17.778Z,14.32
2023-03-04T18:00:44.736Z,14.30
2023-03-04T18:03:15.093Z,14.27
2023-03-04T18:08:42.662Z,14.20
2023-03-04T18:11:10.381Z,14.18
2023-03-04T18:13:41.960Z,14.10
2023-03-04T18:16:09.334Z,14.10
2023-03-04T18:18:36.736Z,14.05
2023-03-04T18:21:04.712Z,14.04
2023-03-04T18:23:32.443Z,14.01
2023-03-04T18:25:59.230Z,14.00
2023-03-04T18:28:26.177Z,13.99
2023-03-04T18:30:55.043Z,13.93
2023-03-04T18:33:21.989Z,13.91
2023-03-04T18:35:49.109Z,13.91
2023-03-04T18:38:16.289Z,13.89
2023-03-04T18:40:44.318Z,13.88
2023-03-04T18:43:11.140Z,13.86
2023-03-04T18:45:37.983Z,13.81
2023-03-04T18:48:05.380Z,13.80
2023-03-04T18:50:32.161Z,13.73
2023-03-04T18:52:58.946Z,13.74
2023-03-04T18:55:27.615Z,13.71
2023-03-04T18:57:57.892Z,13.72
2023-03-04T19:00:25.444Z,13.71
2023-03-04T19:02:58.778Z,13.63
2023-03-04T19:05:30.069Z,13.63
2023-03-04T19:07:57.595Z,13.63
2023-03-04T19:10:25.509Z,13.63
2023-03-04T19:12:52.818Z,13.61
2023-03-04T19:15:20.185Z,13.60
2023-03-04T19:17:46.935Z,13.58
2023-03-04T19:20:15.180Z,13.57
2023-03-04T19:22:45.433Z,13.53
2023-03-04T19:25:12.985Z,13.50
2023-03-04T19:27:41.108Z,13.48
2023-03-04T19:30:08.787Z,13.46
2023-03-04T19:32:36.279Z,13.44
2023-03-04T19:35:03.117Z,13.44
2023-03-04T19:37:30.125Z,13.42
2023-03-04T19:39:56.956Z,13.39
2023-03-04T19:42:24.332Z,13.37
2023-03-04T19:44:51.593Z,13.32
2023-03-04T19:47:18.517Z,13.26
2023-03-04T19:49:45.474Z,13.21
2023-03-04T19:52:12.335Z,13.19
2023-03-04T19:54:39.125Z,13.14
2023-03-04T19:57:05.910Z,13.08
2023-03-04T19:59:32.706Z,13.02
2023-03-04T20:02:01.291Z,12.96
2023-03-04T20:04:28.426Z,12.93
2023-03-04T20:06:55.438Z,12.91
2023-03-04T20:09:22.762Z,12.83
2023-03-04T20:11:59.097Z,12.82
2023-03-04T20:14:31.944Z,12.74
2023-03-04T20:17:03.549Z,12.67
2023-03-04T20:19:31.881Z,12.62
2023-03-04T20:21:58.637Z,12.57
2023-03-04T20:24:26.283Z,12.38
2023-03-04T20:26:53.424Z,12.46
2023-03-04T20:29:20.227Z,12.37
2023-03-04T20:31:47.114Z,12.30
2023-03-04T20:34:17.538Z,12.23
2023-03-04T20:36:44.435Z,12.24
2023-03-04T20:39:25.846Z,12.22
2023-03-04T20:41:55.124Z,12.22
2023-03-04T20:44:21.944Z,12.10
2023-03-04T20:46:48.765Z,12.10
2023-03-04T20:49:24.512Z,12.06
2023-03-04T20:51:52.588Z,11.78
2023-03-04T20:54:19.902Z,11.87
2023-03-04T20:56:48.671Z,11.83
2023-03-04T20:59:16.137Z,11.78
2023-03-04T21:01:44.799Z,11.68
2023-03-04T21:04:11.781Z,11.79
2023-03-04T21:06:39.554Z,11.73
2023-03-04T21:09:13.114Z,11.77
2023-03-04T21:11:41.320Z,11.71
2023-03-04T21:14:22.104Z,11.61
2023-03-04T21:16:51.226Z,11.65
2023-03-04T21:19:20.755Z,11.55
2023-03-04T21:21:49.660Z,11.48
2023-03-04T21:24:19.440Z,11.52
2023-03-04T21:26:47.788Z,11.55
2023-03-04T21:29:16.744Z,11.58
2023-03-04T21:31:50.223Z,11.51
2023-03-04T21:34:24.366Z,11.22
2023-03-04T21:36:51.785Z,11.21
2023-03-04T21:39:21.573Z,11.25
2023-03-04T21:41:48.902Z,10.99
2023-03-04T21:44:27.961Z,11.12
2023-03-04T21:47:00.769Z,10.98
2023-03-04T21:49:27.869Z,11.01
2023-03-04T21:51:54.711Z,11.00
2023-03-04T21:54:22.183Z,11.06
2023-03-04T21:56:50.293Z,11.02
2023-03-04T21:59:20.088Z,11.07
2023-03-04T22:01:47.170Z,10.98
2023-03-04T22:04:14.029Z,10.92
2023-03-04T22:06:41.486Z,10.87
2023-03-04T22:09:08.467Z,10.81
2023-03-04T22:11:35.248Z,10.79
2023-03-04T22:14:03.069Z,10.84
2023-03-04T22:16:35.404Z,10.81
2023-03-04T22:19:04.849Z,10.70
2023-03-04T22:21:31.610Z,10.67
2023-03-04T22:23:58.438Z,10.78
2023-03-04T22:26:31.582Z,10.77
2023-03-04T22:29:01.989Z,10.71
2023-03-04T22:31:34.651Z,10.67
2023-03-04T22:34:07.055Z,10.59
2023-03-04T22:36:49.567Z,10.71
2023-03-04T22:39:29.602Z,10.65
2023-03-04T22:42:18.479Z,10.69
2023-03-04T22:45:01.577Z,10.55
2023-03-04T22:48:06.510Z,10.44
2023-03-04T22:50:46.595Z,10.45
2023-03-04T22:53:33.508Z,10.39
2023-03-04T22:56:15.637Z,10.38
2023-03-04T22:59:02.491Z,10.46
2023-03-04T23:01:43.712Z,10.43
2023-03-04T23:04:30.435Z,10.44
2023-03-04T23:07:10.548Z,10.44
2023-03-04T23:10:04.448Z,10.41
2023-03-04T23:12:51.578Z,10.44
2023-03-04T23:15:31.514Z,10.38
2023-03-04T23:18:20.576Z,10.28
2023-03-04T23:21:00.559Z,10.11
2023-03-04T23:23:47.585Z,9.94
2023-03-04T23:26:32.460Z,9.84
2023-03-04T23:29:21.580Z,9.86
2023-03-04T23:32:01.499Z,9.77
2023-03-04T23:34:53.229Z,9.92
2023-03-04T23:37:32.484Z,9.89
2023-03-04T23:40:19.568Z,9.92
2023-03-04T23:43:02.503Z,9.94
2023-03-04T23:45:50.652Z,9.85
2023-03-04T23:48:30.428Z,9.76
2023-03-04T23:51:19.606Z,9.84
2023-03-04T23:53:59.491Z,9.88
2023-03-04T23:56:46.546Z,9.89
2023-03-04T23:59:26.437Z,9.83
